Time;durP1;ratioP1;P1;durP2;ratioP2;P2;SDS_P1;SDS_P2;PMS_P1;PMS_P2;Temp;Humidity;BMP_temperature;BMP_pressure;BME280_temperature;BME280_humidity;BME280_pressure;Samples;Min_cycle;Max_cycle;Signal;HPM_P1;HPM_P2
2021/06/24 00:01:27;;;;;;;0.63;0.63;;;16.40;87.20;;;;;;5023219;28;20044;-77
2021/06/24 00:03:53;;;;;;;0.77;0.73;;;16.40;86.60;;;;;;5028037;28;20416;-77
2021/06/24 00:06:19;;;;;;;0.70;0.70;;;16.50;86.50;;;;;;5019480;28;20109;-78
2021/06/24 00:08:45;;;;;;;3.42;1.00;;;16.40;86.60;;;;;;5017582;28;20053;-78
2021/06/24 00:11:10;;;;;;;1.20;1.00;;;16.40;87.00;;;;;;5022921;28;20031;-78
2021/06/24 00:13:38;;;;;;;0.70;0.70;;;16.40;87.10;;;;;;5021643;28;20488;-78
2021/06/24 00:16:06;;;;;;;0.95;0.80;;;16.40;87.20;;;;;;5029609;28;20045;-77
2021/06/24 00:18:32;;;;;;;0.70;0.70;;;16.50;87.20;;;;;;5021156;28;20148;-77
2021/06/24 00:20:58;;;;;;;1.08;0.90;;;16.40;87.50;;;;;;5020469;28;20033;-78
2021/06/24 00:23:24;;;;;;;1.25;0.90;;;16.40;88.20;;;;;;5027647;28;20018;-79
2021/06/24 00:25:50;;;;;;;1.75;0.90;;;16.40;87.90;;;;;;5029984;28;20052;-79
2021/06/24 00:28:17;;;;;;;1.95;1.10;;;16.40;88.00;;;;;;5023817;28;20480;-78
2021/06/24 00:30:47;;;;;;;1.60;1.02;;;16.40;87.90;;;;;;5023885;28;20038;-79
2021/06/24 00:33:14;;;;;;;0.90;0.85;;;16.50;88.00;;;;;;5031069;28;20063;-78
2021/06/24 00:35:39;;;;;;;1.40;1.00;;;16.50;88.70;;;;;;5024861;28;20179;-78
2021/06/24 00:38:06;;;;;;;1.15;1.00;;;16.50;87.80;;;;;;5026921;28;20108;-79
2021/06/24 00:40:34;;;;;;;1.40;1.05;;;16.50;88.50;;;;;;5011082;28;20105;-78
2021/06/24 00:43:01;;;;;;;0.75;0.75;;;16.40;88.00;;;;;;5015270;28;20022;-78
2021/06/24 00:45:27;;;;;;;3.17;1.20;;;16.50;88.10;;;;;;5018722;28;20064;-78
2021/06/24 00:47:53;;;;;;;1.52;1.40;;;16.40;87.80;;;;;;5022849;28;20681;-79
2021/06/24 00:50:18;;;;;;;2.45;0.88;;;16.40;87.80;;;;;;5025044;28;20040;-78
2021/06/24 00:52:44;;;;;;;0.85;0.85;;;16.40;87.80;;;;;;5019752;28;20113;-78
2021/06/24 00:55:10;;;;;;;2.70;1.00;;;16.40;87.80;;;;;;5027235;28;20041;-78
2021/06/24 00:57:36;;;;;;;1.67;0.98;;;16.40;87.80;;;;;;5013362;28;20035;-79
2021/06/24 01:00:07;;;;;;;0.90;0.90;;;16.40;88.00;;;;;;5014348;28;20455;-78
2021/06/24 01:02:33;;;;;;;0.80;0.80;;;16.40;88.30;;;;;;5016535;28;20757;-77
2021/06/24 01:04:59;;;;;;;1.42;1.20;;;16.40;88.30;;;;;;5020903;28;20030;-78
2021/06/24 01:07:25;;;;;;;1.08;0.98;;;16.40;88.50;;;;;;5027031;28;20021;-79
2021/06/24 01:09:50;;;;;;;1.08;1.08;;;16.40;88.40;;;;;;5005860;28;20036;-79
2021/06/24 01:12:17;;;;;;;1.20;1.00;;;16.30;88.20;;;;;;5013108;28;20025;-78
2021/06/24 01:14:43;;;;;;;1.02;0.95;;;16.30;88.80;;;;;;5026683;28;20021;-79
2021/06/24 01:17:09;;;;;;;1.10;1.00;;;16.40;88.20;;;;;;5026367;28;20101;-78
2021/06/24 01:19:35;;;;;;;1.45;1.15;;;16.40;87.80;;;;;;5013135;28;20581;-78
2021/06/24 01:22:01;;;;;;;1.60;1.33;;;16.40;87.70;;;;;;5020454;28;20026;-78
2021/06/24 01:24:27;;;;;;;1.73;1.20;;;16.30;87.60;;;;;;5023626;28;20060;-78
2021/06/24 01:26:53;;;;;;;1.95;1.17;;;16.30;87.80;;;;;;5022437;28;20132;-78
2021/06/24 01:29:19;;;;;;;1.20;1.10;;;16.30;87.50;;;;;;5015980;28;20089;-78
2021/06/24 01:31:44;;;;;;;0.98;0.95;;;16.30;87.50;;;;;;5032129;28;20576;-79
2021/06/24 01:34:12;;;;;;;1.85;1.10;;;16.20;87.20;;;;;;5024226;28;20083;-79
2021/06/24 01:36:38;;;;;;;1.52;1.08;;;16.20;86.90;;;;;;5023549;28;20021;-78
2021/06/24 01:39:06;;;;;;;2.47;1.00;;;16.20;87.20;;;;;;5015249;28;20037;-79
2021/06/24 01:41:32;;;;;;;0.95;0.93;;;16.10;87.10;;;;;;5015221;28;20033;-79
2021/06/24 01:43:58;;;;;;;1.85;1.10;;;16.10;87.40;;;;;;5010027;28;20051;-78
2021/06/24 01:46:24;;;;;;;1.20;1.10;;;16.10;87.10;;;;;;5011440;28;20053;-78
2021/06/24 01:48:50;;;;;;;1.13;1.00;;;16.10;87.50;;;;;;5028534;28;20454;-78
2021/06/24 01:51:15;;;;;;;1.77;1.30;;;16.00;87.80;;;;;;5017159;28;20033;-78
2021/06/24 01:53:41;;;;;;;0.95;0.95;;;16.00;87.40;;;;;;5023092;28;20104;-78
2021/06/24 01:56:08;;;;;;;1.80;1.05;;;16.10;87.10;;;;;;5021825;28;20033;-78
2021/06/24 01:58:34;;;;;;;2.15;1.38;;;16.00;87.00;;;;;;5017107;28;20550;-78
2021/06/24 02:01:00;;;;;;;1.98;1.15;;;16.00;86.70;;;;;;5021711;28;20088;-78
2021/06/24 02:03:26;;;;;;;1.63;1.10;;;16.00;86.70;;;;;;5026834;28;20021;-78
2021/06/24 02:05:55;;;;;;;1.20;1.10;;;16.00;86.80;;;;;;5024646;28;20039;-78
2021/06/24 02:08:25;;;;;;;1.27;1.27;;;16.00;86.90;;;;;;5018634;28;20030;-79
2021/06/24 02:10:52;;;;;;;2.55;1.30;;;15.90;87.40;;;;;;5017005;28;20100;-78
2021/06/24 02:13:18;;;;;;;1.63;1.13;;;15.80;87.10;;;;;;5009985;28;20029;-77
2021/06/24 02:15:44;;;;;;;1.20;1.10;;;15.80;86.80;;;;;;5013823;28;20030;-78
2021/06/24 02:18:10;;;;;;;1.40;1.13;;;15.80;86.70;;;;;;5010628;28;20488;-78
2021/06/24 02:20:37;;;;;;;3.78;1.20;;;15.80;86.70;;;;;;5025386;28;20156;-79
2021/06/24 02:23:03;;;;;;;2.88;1.17;;;15.80;86.90;;;;;;5020592;28;20665;-78
2021/06/24 02:25:29;;;;;;;1.83;1.20;;;15.80;87.00;;;;;;5028865;28;20064;-78
2021/06/24 02:27:55;;;;;;;4.25;1.40;;;15.70;87.10;;;;;;5015455;28;20030;-77
2021/06/24 02:30:22;;;;;;;1.23;1.13;;;15.60;87.90;;;;;;5030993;28;20031;-77
2021/06/24 02:32:49;;;;;;;2.67;1.20;;;15.60;88.20;;;;;;5029325;28;20498;-77
2021/06/24 02:35:16;;;;;;;1.80;1.15;;;15.50;87.80;;;;;;5031376;28;20496;-80
2021/06/24 02:37:43;;;;;;;1.50;1.20;;;15.60;87.60;;;;;;5019431;28;20029;-78
2021/06/24 02:40:11;;;;;;;1.75;1.55;;;15.60;88.10;;;;;;5023043;28;20036;-78
2021/06/24 02:42:37;;;;;;;2.65;1.10;;;15.60;88.80;;;;;;5019372;28;20071;-78
2021/06/24 02:45:06;;;;;;;1.30;1.20;;;15.50;87.50;;;;;;5031731;28;20032;-77
2021/06/24 02:47:32;;;;;;;1.67;1.27;;;15.50;87.50;;;;;;5010855;28;20041;-78
2021/06/24 02:49:57;;;;;;;1.30;1.10;;;15.30;88.60;;;;;;5028229;28;20022;-78
2021/06/24 02:52:23;;;;;;;1.00;1.00;;;15.20;89.10;;;;;;5023610;28;20032;-78
2021/06/24 02:54:51;;;;;;;1.30;1.20;;;15.20;89.10;;;;;;5033222;28;20044;-78
2021/06/24 02:57:17;;;;;;;1.30;1.20;;;15.30;89.20;;;;;;5022051;28;20255;-78
2021/06/24 02:59:43;;;;;;;1.70;1.50;;;15.30;90.10;;;;;;5032388;28;20089;-78
2021/06/24 03:02:09;;;;;;;1.55;1.40;;;15.20;89.10;;;;;;5021589;28;20051;-78
2021/06/24 03:04:34;;;;;;;1.77;1.48;;;15.00;89.40;;;;;;5025903;28;21404;-78
2021/06/24 03:07:01;;;;;;;1.67;1.40;;;14.90;90.10;;;;;;5028248;28;20091;-78
2021/06/24 03:09:27;;;;;;;1.45;1.35;;;14.80;90.40;;;;;;5027187;28;20033;-77
2021/06/24 03:11:53;;;;;;;3.85;1.40;;;14.90;90.00;;;;;;5023226;28;20033;-78
2021/06/24 03:14:19;;;;;;;2.80;1.30;;;15.00;89.40;;;;;;5021350;28;20034;-77
2021/06/24 03:16:45;;;;;;;1.27;1.20;;;15.10;89.10;;;;;;5027790;28;20029;-78
2021/06/24 03:19:11;;;;;;;1.88;1.60;;;15.10;89.10;;;;;;5029295;28;20026;-79
2021/06/24 03:21:37;;;;;;;1.40;1.30;;;15.10;89.20;;;;;;5028473;28;20021;-78
2021/06/24 03:24:03;;;;;;;1.50;1.40;;;15.10;89.60;;;;;;5027798;28;20036;-78
2021/06/24 03:26:29;;;;;;;3.30;1.80;;;15.10;88.60;;;;;;5019321;28;20037;-77
2021/06/24 03:28:55;;;;;;;1.50;1.30;;;15.20;88.40;;;;;;5022644;28;20451;-78
2021/06/24 03:31:20;;;;;;;1.35;1.25;;;15.10;88.10;;;;;;5018713;28;20518;-79
2021/06/24 03:33:46;;;;;;;2.95;1.40;;;15.20;88.00;;;;;;5017758;28;20435;-78
2021/06/24 03:36:12;;;;;;;1.98;1.50;;;15.10;88.80;;;;;;5022166;28;20030;-78
2021/06/24 03:38:38;;;;;;;1.50;1.40;;;15.10;89.30;;;;;;5029037;28;20066;-78
2021/06/24 03:41:04;;;;;;;1.48;1.38;;;15.10;89.30;;;;;;5024315;28;20115;-78
2021/06/24 03:43:29;;;;;;;1.33;1.23;;;15.00;89.10;;;;;;5019388;28;20498;-78
2021/06/24 03:45:55;;;;;;;3.92;1.40;;;14.90;89.20;;;;;;5028700;28;20045;-78
2021/06/24 03:48:21;;;;;;;3.00;1.40;;;14.80;90.10;;;;;;5023602;28;20127;-80
2021/06/24 03:50:47;;;;;;;1.65;1.30;;;14.80;89.60;;;;;;5019932;28;20104;-80
2021/06/24 03:53:12;;;;;;;1.60;1.50;;;14.80;89.10;;;;;;5022601;28;20087;-80
2021/06/24 03:55:41;;;;;;;1.48;1.38;;;14.90;89.10;;;;;;5023669;28;20037;-79
2021/06/24 03:58:07;;;;;;;2.45;1.52;;;14.90;88.60;;;;;;5025056;28;20033;-80
2021/06/24 04:00:35;;;;;;;1.40;1.30;;;15.00;88.50;;;;;;5018010;28;20358;-78
2021/06/24 04:03:00;;;;;;;1.90;1.20;;;14.90;88.40;;;;;;5026370;28;20051;-80
2021/06/24 04:05:30;;;;;;;2.70;1.40;;;15.00;88.20;;;;;;5023854;28;20021;-79
2021/06/24 04:07:56;;;;;;;1.52;1.42;;;14.90;88.10;;;;;;5012368;28;20018;-79
2021/06/24 04:10:21;;;;;;;1.50;1.40;;;15.00;88.10;;;;;;5029347;28;20028;-79
2021/06/24 04:12:47;;;;;;;22.20;1.50;;;15.00;87.30;;;;;;5021003;28;20034;-80
2021/06/24 04:15:13;;;;;;;0.85;0.70;;;14.70;87.00;;;;;;5017209;28;20025;-80
2021/06/24 04:17:39;;;;;;;1.23;1.08;;;14.40;88.40;;;;;;5024742;28;20037;-79
2021/06/24 04:20:06;;;;;;;1.30;1.20;;;14.50;89.70;;;;;;5013827;28;20079;-79
2021/06/24 04:22:31;;;;;;;1.25;1.15;;;14.60;90.00;;;;;;5009409;28;20022;-78
2021/06/24 04:24:57;;;;;;;3.20;1.40;;;14.70;90.10;;;;;;5030358;28;20025;-79
2021/06/24 04:27:22;;;;;;;3.75;1.70;;;14.70;90.20;;;;;;5025046;28;20029;-79
2021/06/24 04:29:48;;;;;;;2.00;1.90;;;14.80;90.30;;;;;;5020798;28;20128;-78
2021/06/24 04:32:14;;;;;;;2.35;1.52;;;14.80;90.30;;;;;;5025540;28;20049;-79
2021/06/24 04:34:39;;;;;;;2.83;1.73;;;14.90;90.40;;;;;;5021082;28;20040;-78
2021/06/24 04:37:05;;;;;;;2.10;1.90;;;14.80;90.50;;;;;;5028101;28;20033;-79
2021/06/24 04:39:32;;;;;;;2.95;2.00;;;14.90;90.80;;;;;;5020440;28;20143;-79
2021/06/24 04:41:57;;;;;;;2.53;2.00;;;15.10;90.80;;;;;;5019246;28;21003;-78
2021/06/24 04:44:23;;;;;;;2.67;1.90;;;15.10;90.60;;;;;;5027479;28;20036;-79
2021/06/24 04:46:49;;;;;;;2.60;2.00;;;15.20;90.50;;;;;;5028273;28;20037;-78
2021/06/24 04:49:16;;;;;;;2.58;2.10;;;15.20;90.40;;;;;;5008676;28;20044;-79
2021/06/24 04:51:42;;;;;;;3.95;2.10;;;15.30;90.30;;;;;;5021841;28;20027;-78
2021/06/24 04:54:08;;;;;;;3.03;1.90;;;15.40;90.70;;;;;;5028681;28;20544;-78
2021/06/24 04:56:34;;;;;;;3.40;2.22;;;15.40;90.10;;;;;;5032921;28;20053;-79
2021/06/24 04:58:59;;;;;;;3.92;1.80;;;15.50;90.10;;;;;;5021183;28;20459;-79
2021/06/24 05:01:25;;;;;;;2.22;1.90;;;15.50;90.20;;;;;;5008687;28;20120;-79
2021/06/24 05:03:50;;;;;;;2.25;2.05;;;15.40;90.30;;;;;;5014754;28;20030;-79
2021/06/24 05:06:16;;;;;;;2.33;2.05;;;15.50;90.40;;;;;;5026364;28;20033;-79
2021/06/24 05:08:43;;;;;;;2.58;2.13;;;15.60;90.30;;;;;;5027356;28;20067;-77
2021/06/24 05:11:09;;;;;;;4.15;3.13;;;15.70;90.30;;;;;;5018120;28;20112;-78
2021/06/24 05:13:34;;;;;;;4.32;3.55;;;15.80;90.00;;;;;;5033194;28;20057;-78
2021/06/24 05:16:00;;;;;;;5.47;4.18;;;15.90;89.90;;;;;;5013115;28;20033;-79
2021/06/24 05:18:27;;;;;;;4.57;3.67;;;15.90;89.50;;;;;;5013514;28;20033;-79
2021/06/24 05:20:54;;;;;;;4.32;3.45;;;16.00;88.80;;;;;;5031044;28;20018;-78
2021/06/24 05:23:20;;;;;;;5.32;4.00;;;16.10;88.80;;;;;;5025848;28;20116;-80
2021/06/24 05:25:46;;;;;;;5.50;4.00;;;16.10;88.20;;;;;;5013541;28;20112;-78
2021/06/24 05:28:13;;;;;;;5.05;3.83;;;16.20;88.50;;;;;;5014625;28;20121;-79
2021/06/24 05:30:38;;;;;;;6.13;4.00;;;16.30;88.70;;;;;;5019196;28;20415;-79
2021/06/24 05:33:04;;;;;;;5.60;4.05;;;16.30;87.60;;;;;;5024578;28;20431;-79
2021/06/24 05:35:31;;;;;;;5.13;3.58;;;16.30;87.80;;;;;;5030431;28;20029;-80
2021/06/24 05:37:56;;;;;;;4.70;3.65;;;16.30;88.00;;;;;;5012576;28;20036;-79
2021/06/24 05:40:22;;;;;;;5.53;3.95;;;16.40;87.80;;;;;;5013709;28;20021;-79
2021/06/24 05:42:48;;;;;;;4.40;3.13;;;16.50;87.40;;;;;;5015431;28;20028;-79
2021/06/24 05:45:14;;;;;;;3.55;3.22;;;16.50;87.40;;;;;;5019023;28;20014;-78
2021/06/24 05:47:41;;;;;;;4.80;3.45;;;16.50;86.90;;;;;;5017809;28;20726;-79
2021/06/24 05:50:07;;;;;;;4.57;3.13;;;16.60;86.70;;;;;;5022775;28;20037;-78
2021/06/24 05:52:33;;;;;;;4.38;3.55;;;16.60;87.00;;;;;;5027669;28;20029;-78
2021/06/24 05:54:58;;;;;;;7.43;3.25;;;16.70;87.10;;;;;;5020741;28;20041;-79
2021/06/24 05:57:26;;;;;;;3.67;3.10;;;16.70;86.50;;;;;;5023611;28;20045;-78
2021/06/24 05:59:54;;;;;;;6.10;3.17;;;16.70;86.90;;;;;;5025602;28;20033;-79
2021/06/24 06:02:20;;;;;;;4.78;3.78;;;16.80;86.70;;;;;;5018621;28;20037;-79
2021/06/24 06:04:45;;;;;;;3.72;3.28;;;17.00;87.50;;;;;;5028641;28;20483;-78
2021/06/24 06:07:11;;;;;;;4.35;3.35;;;17.00;86.50;;;;;;5024670;28;20037;-79
2021/06/24 06:09:37;;;;;;;3.65;3.17;;;17.10;85.80;;;;;;5017927;28;20424;-79
2021/06/24 06:12:04;;;;;;;4.65;3.20;;;17.20;85.10;;;;;;5020999;28;20073;-78
2021/06/24 06:14:30;;;;;;;3.30;3.00;;;17.30;84.90;;;;;;5018834;28;20040;-79
2021/06/24 06:16:55;;;;;;;3.72;3.10;;;17.30;84.60;;;;;;5025683;28;20029;-79
2021/06/24 06:19:21;;;;;;;4.30;3.17;;;17.40;83.60;;;;;;5026181;28;20029;-78
2021/06/24 06:21:47;;;;;;;4.70;3.38;;;17.40;83.60;;;;;;5026186;28;20064;-79
2021/06/24 06:24:12;;;;;;;3.78;3.40;;;17.40;84.20;;;;;;5015329;28;20034;-79
2021/06/24 06:26:38;;;;;;;3.58;2.95;;;17.40;83.60;;;;;;5023139;28;20100;-79
2021/06/24 06:29:04;;;;;;;3.70;3.40;;;17.30;84.50;;;;;;5029165;28;20030;-79
2021/06/24 06:31:39;;;;;;;4.30;2.95;;;17.40;84.70;;;;;;5026475;28;20086;-80
2021/06/24 06:34:08;;;;;;;4.63;3.33;;;17.50;84.60;;;;;;5030762;28;20108;-80
2021/06/24 06:36:34;;;;;;;5.25;3.17;;;17.60;84.30;;;;;;5026925;28;20036;-79
2021/06/24 06:39:00;;;;;;;5.95;3.33;;;17.60;86.20;;;;;;5020596;28;20034;-79
2021/06/24 06:41:26;;;;;;;4.10;3.05;;;17.70;84.90;;;;;;5020921;28;20076;-79
2021/06/24 06:43:52;;;;;;;3.42;3.00;;;17.80;84.90;;;;;;5017783;28;20052;-78
2021/06/24 06:46:17;;;;;;;5.03;3.40;;;17.90;84.00;;;;;;5012465;28;20025;-79
2021/06/24 06:48:43;;;;;;;3.95;3.20;;;17.80;83.20;;;;;;5015149;28;20037;-79
2021/06/24 06:51:09;;;;;;;3.97;3.53;;;17.80;83.30;;;;;;5014247;28;20183;-78
2021/06/24 06:53:35;;;;;;;3.72;3.10;;;17.80;83.70;;;;;;5011728;28;20036;-80
2021/06/24 06:56:01;;;;;;;3.33;2.65;;;17.90;84.30;;;;;;5015671;28;20033;-78
2021/06/24 06:58:27;;;;;;;3.55;2.83;;;18.00;83.20;;;;;;5019149;28;20060;-78
2021/06/24 07:00:52;;;;;;;3.13;2.83;;;18.10;84.70;;;;;;5020449;28;20113;-79
2021/06/24 07:03:18;;;;;;;3.28;2.97;;;18.10;83.40;;;;;;5027213;28;20032;-79
2021/06/24 07:05:44;;;;;;;4.13;3.05;;;18.20;83.50;;;;;;5018613;28;20033;-79
2021/06/24 07:08:10;;;;;;;3.95;2.85;;;18.00;81.70;;;;;;5033009;28;20078;-79
2021/06/24 07:10:35;;;;;;;3.53;3.20;;;18.10;84.70;;;;;;5037965;28;20074;-79
2021/06/24 07:13:01;;;;;;;2.63;2.42;;;18.00;82.10;;;;;;5031478;28;20093;-78
2021/06/24 07:15:27;;;;;;;2.83;2.63;;;18.10;81.80;;;;;;5027966;28;20022;-79
2021/06/24 07:17:52;;;;;;;4.35;2.90;;;18.20;82.60;;;;;;5030454;28;20032;-78
2021/06/24 07:20:19;;;;;;;2.85;2.63;;;18.30;82.10;;;;;;5024591;28;20025;-79
2021/06/24 07:22:45;;;;;;;3.05;2.78;;;18.30;81.50;;;;;;5030465;28;20076;-79
2021/06/24 07:25:16;;;;;;;4.38;2.45;;;18.40;81.20;;;;;;5025649;28;20041;-79
2021/06/24 07:27:42;;;;;;;2.80;2.60;;;18.40;81.00;;;;;;5025578;28;20024;-79
2021/06/24 07:30:08;;;;;;;2.70;2.50;;;18.50;81.40;;;;;;5019315;28;20508;-78
2021/06/24 07:32:34;;;;;;;2.63;2.42;;;18.50;81.30;;;;;;5030653;28;20037;-79
2021/06/24 07:35:00;;;;;;;2.58;2.38;;;18.50;81.90;;;;;;5027910;28;20091;-79
2021/06/24 07:37:26;;;;;;;3.78;2.50;;;18.50;80.50;;;;;;5031192;28;20552;-79
2021/06/24 07:39:51;;;;;;;2.67;2.10;;;18.60;81.70;;;;;;5028798;28;20033;-79
2021/06/24 07:42:19;;;;;;;2.30;2.10;;;18.70;80.80;;;;;;5028093;28;20025;-78
2021/06/24 07:44:45;;;;;;;2.67;1.98;;;18.80;81.00;;;;;;5023651;28;20112;-79
2021/06/24 07:47:11;;;;;;;2.08;1.88;;;18.80;82.50;;;;;;5029585;28;20060;-79
2021/06/24 07:49:38;;;;;;;2.33;2.13;;;18.90;83.10;;;;;;5023637;28;20049;-79
2021/06/24 07:52:04;;;;;;;2.10;1.90;;;18.90;81.30;;;;;;5031624;28;20488;-79
2021/06/24 07:54:29;;;;;;;2.53;2.30;;;18.80;79.90;;;;;;5023520;28;20030;-78
2021/06/24 07:56:55;;;;;;;2.35;2.15;;;18.80;80.60;;;;;;5026596;28;20163;-78
2021/06/24 07:59:22;;;;;;;2.53;2.33;;;18.90;80.40;;;;;;5026250;28;20607;-78
2021/06/24 08:01:47;;;;;;;4.13;2.15;;;19.10;81.20;;;;;;5030048;28;20108;-78
2021/06/24 08:04:13;;;;;;;3.75;2.20;;;19.00;81.50;;;;;;5028495;28;20484;-79
2021/06/24 08:06:39;;;;;;;2.58;1.95;;;19.00;81.40;;;;;;5026854;28;20037;-79
2021/06/24 08:09:10;;;;;;;2.17;1.98;;;19.00;80.80;;;;;;5026063;28;20413;-78
2021/06/24 08:11:36;;;;;;;3.25;2.28;;;19.00;80.50;;;;;;5027882;28;20040;-78
2021/06/24 08:14:02;;;;;;;2.10;1.90;;;19.00;79.90;;;;;;5022527;28;20034;-78
2021/06/24 08:16:28;;;;;;;4.63;2.22;;;19.00;79.90;;;;;;5028493;28;20037;-78
2021/06/24 08:18:54;;;;;;;2.33;2.13;;;19.00;80.70;;;;;;5025342;28;20036;-78
2021/06/24 08:21:20;;;;;;;3.35;2.17;;;19.00;80.10;;;;;;5030331;28;20033;-79
2021/06/24 08:23:45;;;;;;;3.22;2.42;;;19.20;80.90;;;;;;5025982;28;20021;-79
2021/06/24 08:26:11;;;;;;;2.70;2.50;;;19.20;79.60;;;;;;5029625;28;20029;-78
2021/06/24 08:28:36;;;;;;;3.53;2.53;;;19.10;78.10;;;;;;5027674;28;20022;-78
2021/06/24 08:31:02;;;;;;;3.53;2.40;;;19.00;78.90;;;;;;5026920;28;20041;-78
2021/06/24 08:33:28;;;;;;;4.15;2.70;;;18.90;80.50;;;;;;5027786;28;20772;-78
2021/06/24 08:35:54;;;;;;;3.38;2.17;;;18.90;80.60;;;;;;5032039;28;20497;-79
2021/06/24 08:38:20;;;;;;;2.75;2.35;;;18.80;79.30;;;;;;5021294;28;20484;-77
2021/06/24 08:40:45;;;;;;;2.60;2.40;;;18.80;81.30;;;;;;5022754;28;20030;-78
2021/06/24 08:43:12;;;;;;;2.30;2.10;;;18.80;78.70;;;;;;5024787;28;20021;-79
2021/06/24 08:45:41;;;;;;;2.92;2.63;;;19.00;79.40;;;;;;5027934;28;20030;-77
2021/06/24 08:48:16;;;;;;;3.42;2.47;;;19.20;81.10;;;;;;5026388;28;20112;-78
2021/06/24 08:50:44;;;;;;;3.17;2.60;;;19.40;79.00;;;;;;5026537;28;20292;-78
2021/06/24 08:53:10;;;;;;;3.05;2.58;;;19.50;79.00;;;;;;5023985;28;20511;-79
2021/06/24 08:55:40;;;;;;;3.45;2.40;;;19.40;77.40;;;;;;5029298;28;20021;-79
2021/06/24 08:58:09;;;;;;;2.45;2.20;;;19.40;76.30;;;;;;5026266;28;20026;-79
2021/06/24 09:00:35;;;;;;;3.55;2.80;;;19.60;77.10;;;;;;5029984;28;20045;-78
2021/06/24 09:03:15;;;;;;;4.00;3.05;;;19.70;78.70;;;;;;5023406;28;20033;-77
2021/06/24 09:06:04;;;;;;;3.95;3.40;;;19.90;78.10;;;;;;5031764;28;20434;-78
2021/06/24 09:08:40;;;;;;;4.30;3.72;;;19.90;78.60;;;;;;5028668;28;20029;-78
2021/06/24 09:11:14;;;;;;;3.90;3.10;;;19.80;78.10;;;;;;5025762;28;20029;-79
2021/06/24 09:13:41;;;;;;;3.90;2.95;;;19.60;77.40;;;;;;5026678;28;20076;-79
2021/06/24 09:16:19;;;;;;;4.00;3.58;;;19.60;77.00;;;;;;5028977;28;20033;-79
2021/06/24 09:18:46;;;;;;;5.28;3.63;;;19.50;77.40;;;;;;5027587;28;20083;-78
2021/06/24 09:21:25;;;;;;;3.47;3.05;;;19.60;78.10;;;;;;5026235;28;20025;-79
2021/06/24 09:23:52;;;;;;;14.90;13.48;;;19.70;77.00;;;;;;5029810;28;20083;-79
2021/06/24 09:26:19;;;;;;;5.33;3.63;;;19.90;75.70;;;;;;5028052;28;20026;-79
2021/06/24 09:28:49;;;;;;;3.63;2.90;;;20.00;74.70;;;;;;5027379;28;20780;-79
2021/06/24 09:31:34;;;;;;;3.72;3.30;;;20.10;74.70;;;;;;5027493;28;20045;-78
2021/06/24 09:34:08;;;;;;;6.65;4.80;;;20.30;73.10;;;;;;5023080;28;20129;-79
2021/06/24 09:36:39;;;;;;;5.80;3.92;;;20.30;76.10;;;;;;5023874;28;20116;-79
2021/06/24 09:39:07;;;;;;;4.57;4.05;;;20.30;77.40;;;;;;5026733;28;20037;-79
2021/06/24 09:41:34;;;;;;;5.03;4.53;;;20.20;76.10;;;;;;5026527;28;20467;-79
2021/06/24 09:44:17;;;;;;;4.80;3.85;;;20.30;75.90;;;;;;5031015;28;20048;-79
2021/06/24 09:46:42;;;;;;;4.65;3.83;;;20.30;75.30;;;;;;5026296;28;20084;-78
2021/06/24 09:49:08;;;;;;;3.72;3.38;;;20.30;74.80;;;;;;5027016;28;20504;-78
2021/06/24 09:51:37;;;;;;;3.75;2.85;;;20.20;75.30;;;;;;5026857;28;20548;-78
2021/06/24 09:54:05;;;;;;;3.75;2.90;;;20.30;77.30;;;;;;5027321;28;20045;-79
2021/06/24 09:56:32;;;;;;;4.50;2.78;;;20.40;75.70;;;;;;5028776;28;20026;-78
2021/06/24 09:59:04;;;;;;;3.00;2.80;;;20.50;75.30;;;;;;5024733;28;20086;-79
2021/06/24 10:01:33;;;;;;;4.07;2.78;;;20.60;73.90;;;;;;5026694;28;20296;-78
2021/06/24 10:04:01;;;;;;;2.67;2.47;;;20.80;74.00;;;;;;5013951;28;20040;-79
2021/06/24 10:06:28;;;;;;;5.38;2.88;;;21.00;73.80;;;;;;5030315;28;20021;-79
2021/06/24 10:08:55;;;;;;;3.20;2.88;;;21.00;71.60;;;;;;5027379;28;20026;-79
2021/06/24 10:11:23;;;;;;;3.80;2.75;;;21.00;70.70;;;;;;5027997;28;20037;-79
2021/06/24 10:13:48;;;;;;;;;;;21.00;70.90;;;;;;5021509;28;20056;-79
2021/06/24 10:16:18;;;;;;;2.95;2.30;;;20.90;70.70;;;;;;5026934;28;20348;-78
2021/06/24 10:18:47;;;;;;;2.60;2.40;;;20.70;70.50;;;;;;5027263;28;20025;-79
2021/06/24 10:21:15;;;;;;;3.10;2.80;;;20.80;73.10;;;;;;5029615;28;20017;-79
2021/06/24 10:23:51;;;;;;;2.83;2.45;;;20.80;74.40;;;;;;5018818;28;20033;-79
2021/06/24 10:26:18;;;;;;;2.80;2.30;;;20.90;74.00;;;;;;5028314;28;20021;-77
2021/06/24 10:28:44;;;;;;;2.72;2.53;;;20.90;73.10;;;;;;5027337;28;20487;-78
2021/06/24 10:31:35;;;;;;;3.08;2.70;;;20.80;72.80;;;;;;5027262;28;20117;-78
2021/06/24 10:34:03;;;;;;;3.55;2.67;;;20.80;74.10;;;;;;5026989;28;20155;-78
2021/06/24 10:36:30;;;;;;;;;;;20.80;72.90;;;;;;5034088;28;20026;-78
2021/06/24 10:38:57;;;;;;;2.80;2.28;;;21.00;72.80;;;;;;5014423;28;19952;-78
2021/06/24 10:41:24;;;;;;;4.47;2.33;;;21.10;70.90;;;;;;5022803;28;20033;-78
2021/06/24 10:43:52;;;;;;;3.65;2.28;;;21.10;70.90;;;;;;5022028;28;20060;-78
2021/06/24 10:46:21;;;;;;;3.88;2.28;;;21.10;71.40;;;;;;5033083;28;20029;-79
2021/06/24 10:48:47;;;;;;;3.13;2.00;;;21.20;72.10;;;;;;5022403;28;20084;-79
2021/06/24 10:51:16;;;;;;;3.38;1.95;;;21.10;72.30;;;;;;5020276;28;20488;-78
2021/06/24 10:53:59;;;;;;;1.60;1.50;;;21.20;73.20;;;;;;5025176;28;20122;-79
2021/06/24 10:56:32;;;;;;;2.85;1.85;;;21.20;69.00;;;;;;5031491;28;20040;-79
2021/06/24 10:59:19;;;;;;;1.90;1.80;;;21.20;66.70;;;;;;5028623;28;20030;-77
2021/06/24 11:01:46;;;;;;;1.33;1.27;;;21.10;69.20;;;;;;5031479;28;20030;-79
2021/06/24 11:04:39;;;;;;;1.77;1.58;;;21.10;69.50;;;;;;5030481;28;20280;-79
2021/06/24 11:07:23;;;;;;;2.05;1.85;;;21.10;70.40;;;;;;5030237;28;20033;-78
2021/06/24 11:10:12;;;;;;;3.15;1.80;;;21.20;69.10;;;;;;5030508;28;20560;-79
2021/06/24 11:12:54;;;;;;;2.25;1.58;;;21.20;69.00;;;;;;5025374;28;20037;-78
2021/06/24 11:15:45;;;;;;;2.60;1.70;;;21.10;69.30;;;;;;5028161;28;20087;-79
2021/06/24 11:18:38;;;;;;;1.85;1.55;;;21.20;69.10;;;;;;5026637;28;20025;-80
2021/06/24 11:21:09;;;;;;;1.50;1.40;;;21.20;68.40;;;;;;5027834;28;20026;-79
2021/06/24 11:23:45;;;;;;;2.35;1.98;;;21.40;68.60;;;;;;5027435;28;20079;-79
2021/06/24 11:26:13;;;;;;;1.73;1.25;;;21.50;67.80;;;;;;5026789;28;20029;-79
2021/06/24 11:28:55;;;;;;;1.60;1.50;;;21.50;67.60;;;;;;5027693;28;20037;-79
2021/06/24 11:31:44;;;;;;;1.73;1.50;;;21.70;68.00;;;;;;5029435;28;20049;-79
2021/06/24 11:34:32;;;;;;;3.35;1.48;;;21.70;66.50;;;;;;5024632;28;20128;-79
2021/06/24 11:36:59;;;;;;;;;;;21.70;65.90;;;;;;5024352;28;20037;-79
2021/06/24 11:39:26;;;;;;;2.22;1.90;;;21.80;66.20;;;;;;5026582;28;19912;-79
2021/06/24 11:41:54;;;;;;;1.40;1.30;;;21.80;66.10;;;;;;5029330;28;20574;-79
2021/06/24 11:44:29;;;;;;;2.42;1.67;;;21.80;66.60;;;;;;5031575;28;20033;-79
2021/06/24 11:47:07;;;;;;;3.08;1.70;;;21.80;66.70;;;;;;5027110;28;20029;-79
2021/06/24 12:04:06;;;;;;;1.50;1.40;;;22.20;65.20;;;;;;5031581;28;20136;-79
2021/06/24 12:07:06;;;;;;;1.52;1.40;;;22.20;63.70;;;;;;5027370;28;20036;-80
2021/06/24 12:09:42;;;;;;;1.40;1.30;;;22.20;63.80;;;;;;5027276;28;20033;-78
2021/06/24 12:12:09;;;;;;;1.75;1.05;;;22.30;62.70;;;;;;5032726;28;20025;-78
2021/06/24 12:14:40;;;;;;;4.40;1.45;;;22.30;64.50;;;;;;5026044;28;20029;-78
2021/06/24 12:17:12;;;;;;;1.63;1.40;;;22.30;64.80;;;;;;5035151;28;20057;-78
2021/06/24 12:20:04;;;;;;;1.70;1.50;;;22.40;65.60;;;;;;5020825;28;20044;-76
2021/06/24 12:22:39;;;;;;;1.70;1.60;;;22.40;63.60;;;;;;5012140;28;20164;-76
2021/06/24 12:25:20;;;;;;;1.48;1.42;;;22.30;64.50;;;;;;5007926;28;20032;-76
2021/06/24 12:27:57;;;;;;;1.10;1.10;;;22.30;62.90;;;;;;5008723;28;20017;-76
2021/06/24 12:30:35;;;;;;;1.20;1.20;;;22.20;62.90;;;;;;5007185;28;20109;-77
2021/06/24 12:33:03;;;;;;;1.20;1.10;;;22.20;62.80;;;;;;5007767;28;20065;-76
2021/06/24 12:35:40;;;;;;;2.38;1.10;;;22.20;62.60;;;;;;5024052;28;20029;-77
2021/06/24 12:38:18;;;;;;;2.97;1.42;;;22.20;62.80;;;;;;5023983;28;20033;-77
2021/06/24 12:40:49;;;;;;;1.40;1.30;;;22.20;61.50;;;;;;5024461;28;20035;-77
2021/06/24 12:43:18;;;;;;;1.10;1.10;;;22.10;60.30;;;;;;5018564;28;20091;-77
2021/06/24 12:45:49;;;;;;;1.20;1.10;;;22.10;63.10;;;;;;5019006;28;20021;-77
2021/06/24 12:48:31;;;;;;;1.60;1.30;;;22.20;63.60;;;;;;5024383;28;20091;-77
2021/06/24 12:50:59;;;;;;;1.48;1.33;;;22.30;64.20;;;;;;5017563;28;20029;-76
2021/06/24 12:53:28;;;;;;;;;;;22.30;64.00;;;;;;5026126;28;20075;-77
2021/06/24 12:55:54;;;;;;;1.25;1.25;;;22.40;66.00;;;;;;5022857;28;19905;-77
2021/06/24 12:58:25;;;;;;;1.13;1.02;;;22.40;64.30;;;;;;5024165;28;20075;-77
2021/06/24 13:01:00;;;;;;;1.40;1.30;;;22.30;63.40;;;;;;5022519;28;20060;-77
2021/06/24 13:03:54;;;;;;;1.23;1.17;;;22.40;62.90;;;;;;5027169;28;20022;-77
2021/06/24 13:06:24;;;;;;;1.02;0.95;;;22.30;62.60;;;;;;5022120;28;20662;-76
2021/06/24 13:08:53;;;;;;;1.55;1.33;;;22.40;62.70;;;;;;5024024;28;20163;-77